createdAt,value
2024-01-29T00:01:14.671Z,74.20
2024-01-29T00:06:16.943Z,74.20
2024-01-29T00:11:19.461Z,74.20
2024-01-29T00:16:21.395Z,74.20
2024-01-29T00:21:23.418Z,73.90
2024-01-29T00:26:25.313Z,73.40
2024-01-29T00:31:29.012Z,73.80
2024-01-29T00:36:30.949Z,73.70
2024-01-29T00:41:32.825Z,73.90
2024-01-29T00:46:34.797Z,73.80
2024-01-29T00:51:37.067Z,73.90
2024-01-29T00:56:38.985Z,73.60
2024-01-29T01:01:41.193Z,73.70
2024-01-29T01:06:43.337Z,73.30
2024-01-29T01:11:45.218Z,73.80
2024-01-29T01:16:47.086Z,73.80
2024-01-29T01:21:49.558Z,73.70
2024-01-29T01:26:51.515Z,73.80
2024-01-29T01:31:53.486Z,73.50
2024-01-29T01:36:55.524Z,73.70
2024-01-29T01:41:57.385Z,74.00
2024-01-29T01:47:00.666Z,73.70
2024-01-29T01:52:02.819Z,73.70
2024-01-29T01:57:05.822Z,73.60
2024-01-29T02:02:11.571Z,73.80
2024-01-29T02:07:14.078Z,73.70
2024-01-29T02:12:16.783Z,74.50
2024-01-29T02:17:18.731Z,74.00
2024-01-29T02:22:20.820Z,74.20
2024-01-29T02:27:22.689Z,74.10
2024-01-29T02:32:24.548Z,74.10
2024-01-29T02:37:26.360Z,74.00
2024-01-29T02:42:28.205Z,74.00
2024-01-29T02:47:30.249Z,73.90
2024-01-29T02:52:32.153Z,73.90
2024-01-29T02:57:34.284Z,74.30
2024-01-29T03:02:36.174Z,74.20
2024-01-29T03:07:38.064Z,74.10
2024-01-29T03:12:39.947Z,74.30
2024-01-29T03:17:41.943Z,74.40
2024-01-29T03:22:43.826Z,74.30
2024-01-29T03:27:46.257Z,74.50
2024-01-29T03:32:50.981Z,74.50
2024-01-29T03:37:53.085Z,74.50
2024-01-29T03:42:54.968Z,74.50
2024-01-29T03:47:56.845Z,74.50
2024-01-29T03:53:00.431Z,74.40
2024-01-29T03:58:02.403Z,74.40
2024-01-29T04:03:04.897Z,74.60
2024-01-29T04:08:07.542Z,74.80
2024-01-29T04:13:09.472Z,74.70
2024-01-29T04:18:11.467Z,74.50
2024-01-29T04:23:14.681Z,74.70
2024-01-29T04:28:16.547Z,74.50
2024-01-29T04:33:19.578Z,74.40
2024-01-29T04:38:21.509Z,74.50
2024-01-29T04:43:23.366Z,74.50
2024-01-29T04:48:25.237Z,74.60
2024-01-29T04:53:27.074Z,74.90
2024-01-29T04:58:28.915Z,74.60
2024-01-29T05:03:31.175Z,74.60
2024-01-29T05:08:33.108Z,74.60
2024-01-29T05:13:35.036Z,74.50
2024-01-29T05:18:37.655Z,74.50
2024-01-29T05:23:39.501Z,74.70
2024-01-29T05:28:41.344Z,74.40
2024-01-29T05:33:43.375Z,74.20
2024-01-29T05:38:45.238Z,74.70
2024-01-29T05:43:47.175Z,74.80
2024-01-29T05:48:49.140Z,74.80
2024-01-29T05:53:51.194Z,75.00
2024-01-29T05:58:53.241Z,75.00
2024-01-29T06:03:55.290Z,75.10
2024-01-29T06:08:57.228Z,75.10
2024-01-29T06:14:00.724Z,75.10
2024-01-29T06:19:02.914Z,75.00
2024-01-29T06:24:05.319Z,75.10
2024-01-29T06:29:07.215Z,75.10
2024-01-29T06:34:09.456Z,75.10
2024-01-29T06:39:11.415Z,75.10
2024-01-29T06:44:13.378Z,75.20
2024-01-29T06:49:27.375Z,75.20
2024-01-29T06:54:29.263Z,75.30
2024-01-29T06:59:31.221Z,75.30
2024-01-29T07:04:33.069Z,75.20
2024-01-29T07:09:35.013Z,75.00
2024-01-29T07:14:40.216Z,75.30
2024-01-29T07:19:44.134Z,75.30
2024-01-29T07:24:47.515Z,75.50
2024-01-29T07:29:49.559Z,75.40
2024-01-29T07:34:53.255Z,75.60
2024-01-29T07:39:55.686Z,75.60
2024-01-29T07:44:57.616Z,75.50
2024-01-29T07:49:59.647Z,75.40
2024-01-29T07:55:01.728Z,75.70
2024-01-29T08:00:04.133Z,75.70
2024-01-29T08:05:06.918Z,75.60
2024-01-29T08:10:09.774Z,75.60
2024-01-29T08:15:12.183Z,75.60
2024-01-29T08:20:14.512Z,75.70
2024-01-29T08:25:16.810Z,75.70
2024-01-29T08:30:19.137Z,75.90
2024-01-29T08:35:20.981Z,75.70
2024-01-29T08:40:23.029Z,75.90
2024-01-29T08:45:25.048Z,76.00
2024-01-29T08:50:27.345Z,76.10
2024-01-29T08:55:29.287Z,75.90
2024-01-29T09:00:33.451Z,75.90
2024-01-29T09:05:35.472Z,75.80
2024-01-29T09:10:37.473Z,76.00
2024-01-29T09:15:39.526Z,75.90
2024-01-29T09:20:41.819Z,76.30
2024-01-29T09:25:43.742Z,76.20
2024-01-29T09:30:48.095Z,76.00
2024-01-29T09:35:50.938Z,75.90
2024-01-29T09:40:55.189Z,75.60
2024-01-29T09:45:57.957Z,75.70
2024-01-29T09:51:01.741Z,76.10
2024-01-29T09:56:04.121Z,76.10
2024-01-29T10:01:11.521Z,76.10
2024-01-29T10:06:14.196Z,76.10
2024-01-29T10:11:17.830Z,76.10
2024-01-29T10:16:20.018Z,76.10
2024-01-29T10:21:21.938Z,76.30
2024-01-29T10:26:25.237Z,76.10
2024-01-29T10:31:27.263Z,76.10
2024-01-29T10:36:32.059Z,76.30
2024-01-29T10:41:36.101Z,76.20
2024-01-29T10:46:38.196Z,76.40
2024-01-29T10:51:43.699Z,76.50
2024-01-29T10:56:45.718Z,76.50
2024-01-29T11:01:55.427Z,76.20
2024-01-29T11:07:12.655Z,76.40
2024-01-29T11:12:17.579Z,76.60
2024-01-29T11:17:20.288Z,76.70
2024-01-29T11:22:22.166Z,76.70
2024-01-29T11:27:24.002Z,76.90
2024-01-29T11:32:32.258Z,77.20
2024-01-29T11:37:34.151Z,77.40
2024-01-29T11:42:36.407Z,77.40
2024-01-29T11:47:38.474Z,77.30
2024-01-29T11:52:40.858Z,77.40
2024-01-29T11:57:49.407Z,77.30
2024-01-29T12:02:51.521Z,77.60
2024-01-29T12:07:53.846Z,77.50
2024-01-29T12:12:56.183Z,77.50
2024-01-29T12:17:58.454Z,77.40
2024-01-29T12:23:00.433Z,77.60
2024-01-29T12:28:17.234Z,77.20
2024-01-29T12:33:20.402Z,76.90
2024-01-29T12:38:23.851Z,76.90
2024-01-29T12:43:29.865Z,77.00
2024-01-29T12:48:32.559Z,76.60
2024-01-29T12:53:34.750Z,76.80
2024-01-29T12:58:37.593Z,77.20
2024-01-29T13:03:42.253Z,77.30
2024-01-29T13:08:44.331Z,77.50
2024-01-29T13:13:46.435Z,77.70
2024-01-29T13:18:48.405Z,77.90
2024-01-29T13:23:50.442Z,78.00
2024-01-29T13:28:52.375Z,78.10
2024-01-29T13:33:54.416Z,78.10
2024-01-29T13:38:56.579Z,78.50
2024-01-29T13:43:58.825Z,78.40
2024-01-29T13:49:01.007Z,78.60
2024-01-29T13:54:03.123Z,78.40
2024-01-29T13:59:05.805Z,78.10
2024-01-29T14:04:07.807Z,77.60
2024-01-29T14:09:12.562Z,77.50
2024-01-29T14:14:17.493Z,77.50
2024-01-29T14:19:21.940Z,77.90
2024-01-29T14:24:24.219Z,77.50
2024-01-29T14:29:26.040Z,77.40
2024-01-29T14:34:27.978Z,77.60
2024-01-29T14:39:29.985Z,77.40
2024-01-29T14:44:34.569Z,77.30
2024-01-29T14:49:37.103Z,77.20
2024-01-29T14:54:38.999Z,77.80
2024-01-29T14:59:40.833Z,77.70
2024-01-29T15:04:42.788Z,77.10
2024-01-29T15:09:45.317Z,77.20
2024-01-29T15:14:47.267Z,77.40
2024-01-29T15:19:49.287Z,77.50
2024-01-29T15:24:51.377Z,77.50
2024-01-29T15:29:53.547Z,77.50
2024-01-29T15:34:55.749Z,77.40
2024-01-29T15:39:57.820Z,76.80
2024-01-29T15:44:59.808Z,76.80
2024-01-29T15:50:02.013Z,77.10
2024-01-29T15:55:05.146Z,77.60
2024-01-29T16:00:07.680Z,76.80
2024-01-29T16:05:10.070Z,76.60
2024-01-29T16:10:12.074Z,76.20
2024-01-29T16:15:16.221Z,76.30
2024-01-29T16:20:18.352Z,76.80
2024-01-29T16:25:22.639Z,76.30
2024-01-29T16:30:24.612Z,76.60
2024-01-29T16:35:26.546Z,76.70
2024-01-29T16:40:28.683Z,76.50
2024-01-29T16:45:30.851Z,76.50
2024-01-29T16:50:32.893Z,76.70
2024-01-29T16:55:34.762Z,76.70
2024-01-29T17:00:36.694Z,76.70
2024-01-29T17:05:38.689Z,76.80
2024-01-29T17:10:41.061Z,76.90
2024-01-29T17:15:43.044Z,77.00
2024-01-29T17:20:45.406Z,76.90
2024-01-29T17:25:47.431Z,76.60
2024-01-29T17:30:49.402Z,76.20
2024-01-29T17:35:51.365Z,76.30
2024-01-29T17:40:53.465Z,76.40
2024-01-29T17:45:55.455Z,76.40
2024-01-29T17:50:57.470Z,76.40
2024-01-29T17:56:00.997Z,76.70
2024-01-29T18:01:03.046Z,76.70
2024-01-29T18:06:06.811Z,76.90
2024-01-29T18:11:08.927Z,77.00
2024-01-29T18:16:10.810Z,76.90
2024-01-29T18:21:12.779Z,77.00
2024-01-29T18:26:15.951Z,76.90
2024-01-29T18:31:21.506Z,77.10
2024-01-29T18:36:23.612Z,77.20
2024-01-29T18:41:25.831Z,77.10
2024-01-29T18:46:27.764Z,77.10
2024-01-29T18:51:33.704Z,77.10
2024-01-29T18:56:37.016Z,77.10
2024-01-29T19:01:39.127Z,77.10
2024-01-29T19:06:44.145Z,77.30
2024-01-29T19:11:46.511Z,77.20
2024-01-29T19:16:51.395Z,77.30
2024-01-29T19:21:53.760Z,77.00
2024-01-29T19:26:55.805Z,77.20
2024-01-29T19:31:57.988Z,77.20
2024-01-29T19:37:00.868Z,77.30
2024-01-29T19:42:03.172Z,77.30
2024-01-29T19:47:05.446Z,77.20
2024-01-29T19:52:10.471Z,77.30
2024-01-29T19:57:12.645Z,77.30
2024-01-29T20:02:14.780Z,77.30
2024-01-29T20:07:17.400Z,77.10
2024-01-29T20:12:20.383Z,77.20
2024-01-29T20:17:23.780Z,77.40
2024-01-29T20:22:28.111Z,77.30
2024-01-29T20:27:30.065Z,77.20
2024-01-29T20:32:32.126Z,77.20
2024-01-29T20:37:34.327Z,77.20
2024-01-29T20:42:36.477Z,77.00
2024-01-29T20:47:38.741Z,76.90
2024-01-29T20:52:40.780Z,77.10
2024-01-29T20:57:43.113Z,77.10
2024-01-29T21:02:45.110Z,77.10
2024-01-29T21:07:48.623Z,77.00
2024-01-29T21:12:50.755Z,77.00
2024-01-29T21:17:52.702Z,77.00
2024-01-29T21:22:54.908Z,77.00
2024-01-29T21:27:56.911Z,77.00
2024-01-29T21:33:00.483Z,76.90
2024-01-29T21:38:02.860Z,76.90
2024-01-29T21:43:04.991Z,76.90
2024-01-29T21:48:07.453Z,76.80
2024-01-29T21:53:09.436Z,77.40
2024-01-29T21:58:12.889Z,76.70
2024-01-29T22:03:14.965Z,77.00
2024-01-29T22:08:16.996Z,77.10
2024-01-29T22:13:19.291Z,77.10
2024-01-29T22:18:21.232Z,77.00
2024-01-29T22:23:23.124Z,76.70
2024-01-29T22:28:25.034Z,76.90
